Time;durP1;ratioP1;P1;durP2;ratioP2;P2;SDS_P1;SDS_P2;PMS_P1;PMS_P2;Temp;Humidity;BMP_temperature;BMP_pressure;BME280_temperature;BME280_humidity;BME280_pressure;Samples;Min_cycle;Max_cycle;Signal;HPM_P1;HPM_P2
2023/05/12 00:02:12;;;;;;;2.60;1.70;;;13.40;95.60;;;12.12;77.74;100189.16;10415214;27;96783;-84
2023/05/12 00:07:15;;;;;;;3.33;1.73;;;13.40;95.70;;;12.10;78.30;100180.47;10385605;27;96426;-85
2023/05/12 00:12:18;;;;;;;3.20;1.77;;;13.40;95.90;;;12.08;78.59;100187.84;10388580;27;96619;-84
2023/05/12 00:17:21;;;;;;;2.83;1.90;;;13.40;96.00;;;12.05;79.34;100181.88;10403301;27;97176;-85
2023/05/12 00:22:25;;;;;;;4.40;2.40;;;13.40;96.40;;;12.03;79.88;100189.19;10424152;27;97136;-85
2023/05/12 00:27:30;;;;;;;3.70;1.70;;;13.40;96.80;;;11.99;80.01;100182.53;10398101;27;99198;-84
2023/05/12 00:32:33;;;;;;;2.60;1.73;;;13.40;97.00;;;11.98;80.38;100182.72;10414817;27;96650;-85
2023/05/12 00:37:36;;;;;;;3.10;2.33;;;13.40;97.30;;;11.96;80.59;100180.25;10414240;27;96620;-84
2023/05/12 00:42:39;;;;;;;3.23;1.80;;;13.30;97.50;;;11.98;80.53;100175.56;10440361;27;97408;-85
2023/05/12 00:47:44;;;;;;;3.30;1.80;;;13.30;97.70;;;11.92;80.47;100170.94;10396161;27;97016;-84
2023/05/12 00:52:48;;;;;;;2.43;1.70;;;13.30;97.80;;;11.86;80.89;100165.50;10405528;28;96506;-85
2023/05/12 00:57:52;;;;;;;3.20;2.33;;;13.30;98.00;;;11.81;81.71;100168.69;10432240;27;97544;-85
2023/05/12 01:02:59;;;;;;;2.73;1.70;;;13.20;98.30;;;11.70;81.92;100174.41;10436094;27;97479;-85
2023/05/12 01:08:03;;;;;;;3.87;1.87;;;13.10;98.60;;;11.61;82.99;100170.13;10444375;27;96562;-86
2023/05/12 01:13:06;;;;;;;2.40;1.63;;;13.00;99.10;;;11.59;83.00;100172.16;10410995;27;96650;-86
2023/05/12 01:18:11;;;;;;;3.03;2.10;;;13.00;99.40;;;11.57;82.89;100168.81;10414127;27;96651;-86
2023/05/12 01:23:18;;;;;;;2.83;1.70;;;12.90;99.70;;;11.57;83.12;100171.47;10389694;27;97641;-86
2023/05/12 01:28:22;;;;;;;5.43;2.63;;;12.90;99.90;;;11.56;83.52;100180.47;10428700;27;96674;-86
2023/05/12 01:33:25;;;;;;;3.50;2.33;;;12.90;99.90;;;11.51;83.67;100165.00;10421957;27;96630;-86
2023/05/12 01:38:29;;;;;;;4.03;1.97;;;12.80;99.90;;;11.51;84.14;100175.66;10460354;27;96642;-86
2023/05/12 01:43:32;;;;;;;3.57;2.60;;;12.80;99.90;;;11.49;84.60;100177.69;10409625;27;98144;-85
2023/05/12 01:48:35;;;;;;;2.27;1.87;;;12.80;99.90;;;11.46;84.48;100167.41;10422001;27;97846;-86
2023/05/12 01:53:38;;;;;;;2.90;2.10;;;12.80;99.90;;;11.43;84.77;100176.53;10431176;27;99276;-86
2023/05/12 01:58:41;;;;;;;3.77;3.00;;;12.80;99.90;;;11.45;85.29;100179.00;10435613;27;96629;-85
2023/05/12 02:03:44;;;;;;;3.70;2.00;;;12.80;99.90;;;11.43;85.35;100178.38;10415364;28;99265;-86
2023/05/12 02:08:48;;;;;;;2.83;1.83;;;12.80;99.90;;;11.39;85.62;100175.22;10415893;27;96574;-86
2023/05/12 02:13:51;;;;;;;4.53;2.43;;;12.70;99.90;;;11.41;85.85;100183.88;10401482;27;96921;-86
2023/05/12 02:18:54;;;;;;;4.20;2.60;;;12.70;99.90;;;11.42;85.57;100172.22;10406332;27;98206;-86
2023/05/12 02:23:57;;;;;;;3.17;2.50;;;12.70;99.90;;;11.43;85.82;100181.84;10371284;27;96477;-85
2023/05/12 02:29:00;;;;;;;3.87;2.30;;;12.70;99.90;;;11.41;85.77;100183.03;10430176;27;96626;-85
2023/05/12 02:34:04;;;;;;;3.40;2.20;;;12.70;99.90;;;11.31;86.47;100185.91;10396321;27;96598;-85
2023/05/12 02:39:08;;;;;;;4.23;2.70;;;12.60;99.90;;;11.23;87.50;100183.28;10409100;27;96470;-85
2023/05/12 02:44:11;;;;;;;2.93;2.10;;;12.60;99.90;;;11.30;88.02;100184.25;10420641;27;98301;-86
2023/05/12 02:49:15;;;;;;;2.40;2.10;;;12.60;99.90;;;11.32;88.05;100202.69;10451546;27;98098;-86
2023/05/12 02:54:17;;;;;;;3.30;2.40;;;12.60;99.90;;;11.35;88.05;100203.19;10441094;27;96917;-86
2023/05/12 02:59:20;;;;;;;4.40;2.43;;;12.70;99.90;;;11.40;88.01;100200.03;10404792;27;96656;-86
2023/05/12 03:04:23;;;;;;;3.87;2.57;;;12.70;99.90;;;11.40;88.16;100194.69;10434734;27;96489;-86
2023/05/12 03:09:26;;;;;;;4.13;3.07;;;12.70;99.90;;;11.40;88.22;100200.03;10424645;27;96378;-86
2023/05/12 03:14:29;;;;;;;6.43;2.30;;;12.70;99.90;;;11.38;88.32;100196.69;10403573;27;97672;-86
2023/05/12 03:19:33;;;;;;;4.10;2.43;;;12.70;99.90;;;11.34;88.22;100195.38;10418932;27;98430;-86
2023/05/12 03:24:37;;;;;;;4.37;2.90;;;12.70;99.90;;;11.31;88.42;100196.56;10426463;27;96400;-86
2023/05/12 03:29:39;;;;;;;4.80;2.90;;;12.70;99.90;;;11.32;88.85;100197.38;10431428;27;97938;-86
2023/05/12 03:34:43;;;;;;;6.03;3.57;;;12.70;99.90;;;11.30;89.02;100212.69;10416756;27;96554;-86
2023/05/12 03:39:46;;;;;;;4.87;2.43;;;12.60;99.90;;;11.26;89.99;100215.69;10469040;27;96645;-86
2023/05/12 03:44:50;;;;;;;6.10;2.60;;;12.60;99.90;;;11.21;90.76;100215.34;10401189;27;96702;-85
2023/05/12 03:49:53;;;;;;;3.93;2.93;;;12.60;99.90;;;11.14;91.82;100218.88;10413991;27;97220;-86
2023/05/12 03:54:57;;;;;;;6.43;2.70;;;12.60;99.90;;;11.07;92.58;100215.25;10453350;27;96590;-86
2023/05/12 04:00:00;;;;;;;4.33;3.20;;;12.50;99.90;;;11.00;92.87;100212.44;10419298;27;96739;-86
2023/05/12 04:05:07;;;;;;;7.50;3.43;;;12.40;99.90;;;10.92;93.69;100220.47;10405920;27;97704;-86
2023/05/12 04:10:10;;;;;;;4.33;3.27;;;12.40;99.90;;;10.93;94.78;100222.94;10400927;27;97541;-86
2023/05/12 04:15:13;;;;;;;5.57;3.37;;;12.30;99.90;;;10.87;94.80;100228.94;10412820;27;98328;-86
2023/05/12 04:20:16;;;;;;;5.73;3.47;;;12.30;99.90;;;10.91;95.54;100226.75;10410851;27;96667;-86
2023/05/12 04:25:20;;;;;;;5.50;3.23;;;12.40;99.90;;;10.85;96.21;100222.94;10447818;27;96742;-86
2023/05/12 04:30:23;;;;;;;5.80;4.30;;;12.30;99.90;;;10.90;96.78;100233.06;10396489;27;98427;-85
2023/05/12 04:35:26;;;;;;;5.60;4.40;;;12.30;99.90;;;10.95;97.49;100236.88;10393861;27;96539;-85
2023/05/12 04:40:30;;;;;;;8.43;5.07;;;12.30;99.90;;;10.99;97.80;100238.22;10397995;27;97803;-85
2023/05/12 04:45:37;;;;;;;5.57;3.37;;;12.40;99.90;;;10.99;98.30;100235.56;10417121;27;97963;-86
2023/05/12 04:50:40;;;;;;;5.97;4.17;;;12.40;99.90;;;11.05;99.09;100235.88;10396794;27;97895;-85
2023/05/12 04:55:44;;;;;;;5.70;3.83;;;12.50;99.90;;;11.07;98.89;100236.53;10406296;27;98731;-88
2023/05/12 05:00:47;;;;;;;4.33;3.23;;;12.50;99.90;;;11.12;99.73;100234.19;10416222;27;98701;-89
2023/05/12 05:05:52;;;;;;;4.57;3.53;;;12.60;99.90;;;11.18;100.00;100238.81;10433610;27;96706;-88
2023/05/12 05:10:55;;;;;;;4.57;3.60;;;12.60;99.90;;;11.19;100.00;100235.16;10421035;27;96631;-86
2023/05/12 05:15:58;;;;;;;4.80;3.90;;;12.60;99.90;;;11.22;100.00;100242.81;10442273;27;96693;-86
2023/05/12 05:21:01;;;;;;;7.37;3.93;;;12.60;99.90;;;11.28;100.00;100242.13;10432450;27;96746;-87
2023/05/12 05:26:04;;;;;;;7.47;3.60;;;12.70;99.90;;;11.24;99.98;100240.81;10426852;27;98339;-87
2023/05/12 05:31:07;;;;;;;6.47;3.77;;;12.70;99.90;;;11.26;100.00;100246.78;10428316;27;96771;-87
2023/05/12 05:36:10;;;;;;;5.93;3.50;;;12.70;99.90;;;11.23;100.00;100242.63;10446136;27;96592;-87
2023/05/12 05:41:13;;;;;;;5.60;4.00;;;12.60;99.90;;;11.17;99.13;100232.69;10426666;27;96602;-87
2023/05/12 05:46:16;;;;;;;5.60;3.77;;;12.60;99.90;;;11.23;99.96;100247.13;10423482;27;96506;-87
2023/05/12 05:51:19;;;;;;;7.50;4.93;;;12.70;99.90;;;11.26;99.85;100258.25;10420004;28;96624;-86
2023/05/12 05:56:23;;;;;;;5.30;3.27;;;12.70;99.90;;;11.30;100.00;100261.41;10474032;27;96811;-87
2023/05/12 06:01:26;;;;;;;6.33;3.33;;;12.70;99.90;;;11.32;99.96;100259.38;10427588;27;96549;-88
2023/05/12 06:06:29;;;;;;;6.80;4.17;;;12.70;99.90;;;11.25;99.33;100263.75;10405906;27;98745;-88
2023/05/12 06:11:31;;;;;;;8.03;3.73;;;12.70;99.90;;;11.28;99.88;100255.44;10436046;27;97393;-88
2023/05/12 06:16:34;;;;;;;6.27;4.00;;;12.70;99.90;;;11.25;99.29;100253.94;10402952;27;98823;-88
2023/05/12 06:21:38;;;;;;;6.40;3.70;;;12.70;99.90;;;11.25;99.61;100255.75;10414815;27;96483;-88
2023/05/12 06:26:41;;;;;;;8.27;4.40;;;12.70;99.90;;;11.30;100.00;100258.75;10374667;27;96438;-87
2023/05/12 06:31:44;;;;;;;4.67;3.80;;;12.70;99.90;;;11.44;100.00;100260.69;10410514;27;98354;-87
2023/05/12 06:36:47;;;;;;;5.63;4.10;;;12.80;99.90;;;11.55;100.00;100258.66;10398920;27;96733;-86
2023/05/12 06:41:50;;;;;;;7.17;5.00;;;12.90;99.90;;;11.60;100.00;100261.63;10431972;27;96980;-87
2023/05/12 06:46:54;;;;;;;6.80;3.87;;;13.00;99.90;;;11.71;100.00;100259.41;10417408;27;96730;-87
2023/05/12 06:51:56;;;;;;;4.87;4.23;;;13.10;99.90;;;11.72;100.00;100266.41;10429300;27;96558;-88
2023/05/12 06:57:00;;;;;;;5.77;4.53;;;13.20;99.90;;;11.73;100.00;100267.22;10426058;27;97092;-88
2023/05/12 07:02:03;;;;;;;7.10;4.90;;;13.20;99.90;;;11.68;99.47;100266.91;10431434;27;98881;-87
2023/05/12 07:07:06;;;;;;;7.27;4.23;;;13.10;99.90;;;11.68;99.51;100257.09;10392856;28;96571;-88
2023/05/12 07:12:10;;;;;;;9.60;4.53;;;13.10;99.90;;;11.72;99.85;100258.41;10368109;27;97685;-88
2023/05/12 07:17:13;;;;;;;5.57;3.97;;;13.10;99.90;;;11.71;99.87;100250.59;10353312;28;97412;-88
2023/05/12 07:22:16;;;;;;;7.20;3.83;;;13.10;99.90;;;11.79;100.00;100263.88;10382111;28;96575;-87
2023/05/12 07:27:19;;;;;;;9.10;6.00;;;13.10;99.90;;;11.77;100.00;100265.88;10366822;28;96588;-88
2023/05/12 07:32:21;;;;;;;5.83;3.87;;;13.10;99.90;;;11.78;100.00;100262.22;10374124;28;96841;-87
2023/05/12 07:37:25;;;;;;;5.60;3.70;;;13.20;99.90;;;11.73;98.26;100267.22;10407355;27;97945;-88
2023/05/12 07:42:27;;;;;;;5.53;3.70;;;13.20;99.90;;;11.63;97.28;100263.94;10360531;28;98052;-86
2023/05/12 07:47:31;;;;;;;4.03;3.00;;;13.00;99.90;;;11.60;97.68;100270.44;10352725;27;97115;-88
2023/05/12 07:52:34;;;;;;;7.23;3.33;;;13.00;99.90;;;11.61;97.59;100271.28;10381200;28;97355;-88
2023/05/12 07:57:38;;;;;;;4.53;3.27;;;13.00;99.90;;;11.60;97.55;100280.25;10407588;28;96592;-87
2023/05/12 08:02:42;;;;;;;6.00;3.40;;;13.00;99.90;;;11.57;96.63;100275.28;10377745;27;97382;-87
2023/05/12 08:07:46;;;;;;;4.03;3.33;;;13.00;99.90;;;11.50;95.72;100288.44;10412371;27;98494;-88
2023/05/12 08:12:49;;;;;;;5.90;3.00;;;12.90;99.90;;;11.51;97.54;100288.28;10396886;27;96449;-87
2023/05/12 08:17:51;;;;;;;5.97;3.90;;;12.90;99.90;;;11.46;96.29;100285.31;10388039;27;96557;-88
2023/05/12 08:22:55;;;;;;;6.53;3.80;;;12.90;99.90;;;11.39;95.56;100300.28;10408062;27;98685;-86
2023/05/12 08:27:58;;;;;;;7.47;4.13;;;12.80;99.90;;;11.32;95.62;100293.97;10406706;27;96601;-86
2023/05/12 08:33:02;;;;;;;5.00;3.40;;;12.70;99.90;;;11.34;96.00;100301.81;10441725;27;96937;-86
2023/05/12 08:38:06;;;;;;;5.13;3.70;;;12.70;99.90;;;11.29;95.58;100307.63;10434959;27;96515;-86
2023/05/12 08:43:15;;;;;;;6.03;4.07;;;12.70;99.90;;;11.21;95.69;100303.13;10404429;27;96589;-86
2023/05/12 08:48:20;;;;;;;6.57;4.13;;;12.60;99.90;;;11.23;97.33;100309.13;10402931;27;98866;-87
2023/05/12 08:53:24;;;;;;;6.57;4.37;;;12.60;99.90;;;11.23;97.05;100311.81;10411467;27;97447;-87
2023/05/12 08:58:28;;;;;;;7.03;4.37;;;12.60;99.90;;;11.24;98.09;100315.28;10414129;27;96663;-87
2023/05/12 09:03:44;;;;;;;5.93;4.47;;;12.60;99.90;;;11.29;99.04;100317.44;10429443;27;96951;-87
2023/05/12 09:08:47;;;;;;;7.80;4.90;;;12.70;99.90;;;11.18;97.07;100322.09;10430534;27;96744;-88
2023/05/12 09:14:07;;;;;;;5.97;4.87;;;12.60;99.90;;;11.12;97.09;100327.28;10395385;27;96660;-88
2023/05/12 09:19:11;;;;;;;8.80;4.93;;;12.50;99.90;;;11.05;96.89;100327.13;10419572;27;96572;-88
2023/05/12 09:24:14;;;;;;;6.90;4.80;;;12.50;99.90;;;11.07;97.69;100326.94;10384312;27;96496;-88
2023/05/12 09:29:18;;;;;;;8.77;4.77;;;12.50;99.90;;;10.95;95.90;100332.59;10407352;27;96571;-87
2023/05/12 09:34:37;;;;;;;6.50;4.37;;;12.40;99.90;;;10.78;94.47;100330.94;10404862;27;96581;-89
2023/05/12 09:39:40;;;;;;;9.13;5.03;;;12.30;99.90;;;10.67;95.71;100339.22;10420915;27;98577;-88
2023/05/12 09:44:45;;;;;;;9.17;4.83;;;12.10;99.90;;;10.64;96.06;100348.38;10403279;27;97190;-89
2023/05/12 09:49:51;;;;;;;8.07;5.17;;;12.10;99.90;;;10.61;96.16;100353.19;10424720;27;98106;-88
2023/05/12 09:54:54;;;;;;;9.57;6.57;;;12.00;99.90;;;10.61;96.76;100354.00;10424700;27;96610;-88
2023/05/12 09:59:58;;;;;;;8.43;5.40;;;12.00;99.90;;;10.64;97.26;100358.19;10440260;27;96569;-87
2023/05/12 10:05:05;;;;;;;8.80;5.70;;;12.00;99.90;;;10.64;97.69;100358.19;10399492;27;97170;-87
2023/05/12 10:10:13;;;;;;;7.30;5.60;;;12.10;99.90;;;10.71;98.34;100353.88;10422260;27;96605;-86
2023/05/12 10:15:19;;;;;;;7.40;5.40;;;12.10;99.90;;;10.79;98.68;100361.00;10391657;27;98616;-86
2023/05/12 10:20:24;;;;;;;7.07;4.83;;;12.10;99.90;;;10.77;98.14;100363.84;10423737;27;97211;-87
2023/05/12 10:25:28;;;;;;;6.70;4.80;;;12.10;99.90;;;10.78;97.37;100367.31;10429687;27;96584;-87
2023/05/12 10:30:32;;;;;;;7.23;5.10;;;12.20;99.90;;;10.81;98.04;100364.34;10421370;27;96640;-87
2023/05/12 10:35:36;;;;;;;7.70;5.20;;;12.20;99.90;;;10.81;97.09;100370.50;10406766;27;98117;-87
2023/05/12 10:40:59;;;;;;;13.17;8.30;;;12.20;99.90;;;10.78;97.79;100373.47;10419432;27;99042;-87
2023/05/12 10:46:12;;;;;;;31.03;22.70;;;12.20;99.90;;;10.80;97.83;100374.16;10452998;27;97492;-86
2023/05/12 10:51:23;;;;;;;13.17;5.20;;;12.20;99.90;;;10.78;97.74;100381.44;10460896;27;96643;-87
2023/05/12 10:56:37;;;;;;;6.40;4.80;;;12.20;99.90;;;10.79;97.86;100393.72;10408297;27;96807;-87
2023/05/12 11:01:41;;;;;;;6.03;4.90;;;12.20;99.90;;;10.76;98.30;100387.94;10431122;27;99193;-87
2023/05/12 11:06:58;;;;;;;10.93;6.30;;;12.10;99.90;;;10.80;99.36;100392.75;10434485;27;97151;-86
2023/05/12 11:12:05;;;;;;;9.53;5.83;;;12.20;99.90;;;10.77;99.69;100379.78;10389707;27;97307;-87
2023/05/12 11:17:09;;;;;;;16.07;7.60;;;12.20;99.90;;;10.68;99.97;100373.63;10394737;27;98098;-87
2023/05/12 11:22:15;;;;;;;7.33;6.30;;;12.10;99.90;;;10.69;100.00;100377.13;10451611;27;98573;-88
2023/05/12 11:27:21;;;;;;;11.77;9.10;;;12.20;99.90;;;10.69;100.00;100363.84;10437142;27;98432;-87
2023/05/12 11:32:26;;;;;;;8.37;6.53;;;12.10;99.90;;;10.68;100.00;100365.66;10424866;27;98005;-87
2023/05/12 11:37:35;;;;;;;8.43;5.77;;;12.10;99.90;;;10.75;100.00;100365.84;10414959;27;97427;-87
2023/05/12 11:42:40;;;;;;;8.97;7.00;;;12.20;99.90;;;10.74;100.00;100352.72;10399453;27;96675;-88
2023/05/12 11:47:43;;;;;;;10.47;6.27;;;12.20;99.90;;;10.77;100.00;100357.69;10376288;27;96637;-88
2023/05/12 11:52:46;;;;;;;9.47;5.93;;;12.20;99.90;;;10.75;100.00;100368.50;10396070;27;96787;-88
2023/05/12 11:58:01;;;;;;;6.30;5.17;;;12.20;99.90;;;10.86;100.00;100368.19;10398499;27;96870;-88
2023/05/12 12:03:07;;;;;;;9.20;5.87;;;12.20;99.90;;;10.87;100.00;100371.66;10410279;27;98002;-88
2023/05/12 12:08:14;;;;;;;6.70;5.40;;;12.30;99.90;;;10.81;100.00;100370.50;10427669;27;96853;-88
2023/05/12 12:13:23;;;;;;;10.00;6.90;;;12.30;99.90;;;10.72;100.00;100366.97;10375087;27;96526;-89
2023/05/12 12:18:26;;;;;;;14.83;8.17;;;12.20;99.90;;;10.68;100.00;100364.84;10388850;27;96926;-88
2023/05/12 12:23:29;;;;;;;9.93;7.33;;;12.10;99.90;;;10.70;100.00;100373.47;10447538;27;96693;-90
2023/05/12 12:28:49;;;;;;;9.23;6.57;;;12.10;99.90;;;10.73;100.00;100378.44;10412700;27;96624;-88
2023/05/12 12:33:53;;;;;;;9.30;5.87;;;12.10;99.90;;;10.75;100.00;100375.66;10388112;27;99075;-89
2023/05/12 12:38:56;;;;;;;8.17;6.30;;;12.20;99.90;;;10.73;100.00;100375.78;10418212;27;97790;-89
2023/05/12 12:44:00;;;;;;;7.73;6.10;;;12.10;99.90;;;10.79;100.00;100382.28;10440881;27;98799;-89
2023/05/12 12:49:03;;;;;;;10.07;7.93;;;12.20;99.90;;;10.81;100.00;100374.97;10412888;27;98865;-90
2023/05/12 12:54:06;;;;;;;11.30;8.57;;;12.20;99.90;;;10.82;100.00;100388.09;10388194;27;96494;-88
2023/05/12 12:59:10;;;;;;;9.67;6.23;;;12.20;99.90;;;10.83;100.00;100380.94;10376399;28;96589;-88
2023/05/12 13:04:13;;;;;;;8.50;5.90;;;12.20;99.90;;;10.87;100.00;100377.81;10454001;27;97498;-89
2023/05/12 13:09:17;;;;;;;7.47;5.47;;;12.20;99.90;;;10.88;100.00;100386.63;10445847;27;96648;-89
2023/05/12 13:14:23;;;;;;;8.03;5.00;;;12.20;99.90;;;10.87;100.00;100380.47;10408544;27;96519;-89
2023/05/12 13:19:26;;;;;;;6.33;4.80;;;12.20;99.90;;;10.95;100.00;100383.13;10410551;27;96702;-88
2023/05/12 13:24:29;;;;;;;6.53;3.93;;;12.30;99.90;;;10.93;100.00;100378.97;10403482;28;96666;-87
2023/05/12 13:29:32;;;;;;;6.90;4.10;;;12.30;99.90;;;10.93;100.00;100378.97;10406637;27;96759;-89
2023/05/12 13:34:35;;;;;;;4.20;3.27;;;12.30;99.90;;;10.86;100.00;100383.28;10420346;27;98121;-88
2023/05/12 13:39:38;;;;;;;5.17;3.10;;;12.20;99.90;;;10.74;98.79;100382.78;10391532;28;96694;-87
2023/05/12 13:44:41;;;;;;;5.03;3.47;;;12.20;99.90;;;10.72;99.70;100384.75;10390981;27;96609;-86
2023/05/12 13:49:44;;;;;;;12.87;7.53;;;12.10;99.90;;;10.69;100.00;100379.78;10396803;27;96608;-87
2023/05/12 13:54:48;;;;;;;12.77;8.40;;;12.10;99.90;;;10.70;100.00;100387.59;10417950;28;96669;-87
2023/05/12 13:59:51;;;;;;;10.53;6.57;;;12.10;99.90;;;10.68;100.00;100384.28;10378303;27;96731;-88
2023/05/12 14:04:55;;;;;;;8.30;5.37;;;12.10;99.90;;;10.71;100.00;100396.38;10454257;27;96773;-87
2023/05/12 14:09:59;;;;;;;5.87;4.60;;;12.10;99.90;;;10.76;100.00;100391.41;10400896;27;96526;-87
2023/05/12 14:15:02;;;;;;;6.67;4.93;;;12.10;99.90;;;10.77;100.00;100385.09;10411689;27;97540;-89
2023/05/12 14:20:25;;;;;;;11.43;5.70;;;12.10;99.90;;;10.82;100.00;100387.28;10386585;27;96809;-87
2023/05/12 14:25:29;;;;;;;9.60;5.47;;;12.20;99.90;;;10.83;100.00;100395.06;10428089;27;97478;-86
2023/05/12 14:30:36;;;;;;;9.23;6.20;;;12.20;99.90;;;10.82;100.00;100400.56;10388086;27;96935;-87
2023/05/12 14:35:39;;;;;;;8.50;6.17;;;12.20;99.90;;;10.75;100.00;100391.59;10421776;27;97554;-85
2023/05/12 14:40:42;;;;;;;7.53;5.63;;;12.20;99.90;;;10.72;100.00;100398.88;10403939;27;96789;-85
2023/05/12 14:45:53;;;;;;;8.13;5.50;;;12.10;99.90;;;10.70;100.00;100410.69;10394943;27;96692;-86
2023/05/12 14:50:56;;;;;;;;;;;12.10;99.90;;;10.67;100.00;100419.78;10395698;27;96645;-86
2023/05/12 14:56:01;;;;;;;7.00;5.20;;;12.00;99.90;;;10.66;100.00;100415.47;10404662;27;96866;-86
2023/05/12 15:01:04;;;;;;;7.07;5.33;;;12.00;99.90;;;10.67;100.00;100417.13;10439259;27;96614;-86
2023/05/12 15:06:11;;;;;;;6.80;5.70;;;12.00;99.90;;;10.65;100.00;100423.63;10439936;27;96850;-86
2023/05/12 15:11:16;;;;;;;8.50;5.93;;;12.00;99.90;;;10.57;100.00;100419.13;10401899;27;96576;-87
2023/05/12 15:16:19;;;;;;;10.23;7.43;;;12.00;99.90;;;10.62;100.00;100423.97;10431371;27;97957;-87
2023/05/12 15:21:22;;;;;;;7.77;5.80;;;12.00;99.90;;;10.60;100.00;100425.94;10427441;27;98452;-85
2023/05/12 15:26:25;;;;;;;9.30;5.73;;;12.00;99.90;;;10.58;100.00;100417.28;10432219;27;97108;-86
2023/05/12 15:31:47;;;;;;;7.10;5.50;;;11.90;99.90;;;10.64;100.00;100427.28;10490691;27;96303;-86
2023/05/12 15:36:51;;;;;;;9.33;5.93;;;12.00;99.90;;;10.69;100.00;100425.78;10462107;27;96794;-86
2023/05/12 15:41:54;;;;;;;8.73;6.30;;;12.10;99.90;;;10.72;100.00;100435.25;10452757;27;96796;-86
2023/05/12 15:46:57;;;;;;;10.03;6.57;;;12.10;99.90;;;10.78;100.00;100428.47;10430813;27;97373;-87
2023/05/12 15:52:01;;;;;;;15.60;10.40;;;12.10;99.90;;;10.80;100.00;100424.66;10442769;27;97506;-87
2023/05/12 15:57:05;;;;;;;16.43;11.63;;;12.20;99.90;;;10.79;100.00;100425.63;10418805;27;96758;-87
2023/05/12 16:02:09;;;;;;;14.07;11.43;;;12.20;99.90;;;10.74;100.00;100422.66;10433673;27;96628;-87
2023/05/12 16:07:12;;;;;;;15.53;12.07;;;12.10;99.90;;;10.73;100.00;100420.97;10417787;27;96819;-86
2023/05/12 16:12:16;;;;;;;12.10;7.30;;;12.10;99.90;;;10.70;100.00;100426.63;10445449;27;97541;-88
2023/05/12 16:17:21;;;;;;;10.47;6.37;;;12.10;99.90;;;10.68;100.00;100424.13;10440833;27;99125;-87
2023/05/12 16:22:24;;;;;;;7.83;5.03;;;12.10;99.90;;;10.68;100.00;100428.63;10444238;27;97273;-87
2023/05/12 16:27:28;;;;;;;16.03;11.47;;;12.10;99.90;;;10.64;100.00;100432.59;10427209;27;97698;-87
2023/05/12 16:32:31;;;;;;;10.20;8.17;;;12.00;99.90;;;10.63;100.00;100428.28;10421490;27;96691;-88
2023/05/12 16:37:34;;;;;;;13.83;8.67;;;12.00;99.90;;;10.62;100.00;100435.41;10402955;27;96762;-89
2023/05/12 16:42:37;;;;;;;17.67;12.20;;;12.00;99.90;;;10.59;100.00;100441.03;10401746;27;98443;-87
2023/05/12 16:47:40;;;;;;;17.90;11.07;;;12.00;99.90;;;10.59;100.00;100440.22;10379409;28;96716;-89
2023/05/12 16:52:43;;;;;;;11.47;8.43;;;11.90;99.90;;;10.54;100.00;100447.84;10400365;27;97467;-88
2023/05/12 16:57:46;;;;;;;16.97;12.03;;;11.90;99.90;;;10.57;100.00;100452.84;10439751;27;96679;-87
2023/05/12 17:02:49;;;;;;;16.87;12.27;;;11.90;99.90;;;10.52;100.00;100444.53;10377784;28;96492;-88
2023/05/12 17:07:52;;;;;;;15.13;11.57;;;11.90;99.90;;;10.55;100.00;100441.53;10394352;28;98665;-88
2023/05/12 17:12:57;;;;;;;12.00;9.57;;;11.90;99.90;;;10.51;100.00;100442.84;10386747;27;96491;-88
2023/05/12 17:18:00;;;;;;;16.23;11.83;;;11.90;99.90;;;10.54;100.00;100450.50;10416679;28;97397;-87
2023/05/12 17:23:04;;;;;;;11.33;8.83;;;11.90;99.90;;;10.61;100.00;100454.16;10419599;28;96768;-87
2023/05/12 17:28:07;;;;;;;12.40;9.97;;;12.00;99.90;;;10.63;100.00;100462.81;10439965;28;96443;-88
2023/05/12 17:33:10;;;;;;;15.63;9.47;;;12.00;99.90;;;10.61;100.00;100465.63;10450679;28;97372;-88
2023/05/12 17:38:14;;;;;;;16.80;13.00;;;12.00;99.90;;;10.59;100.00;100466.78;10413595;28;96776;-89
2023/05/12 17:43:17;;;;;;;15.70;12.53;;;12.00;99.90;;;10.58;100.00;100471.28;10392565;28;96522;-91
2023/05/12 17:48:21;;;;;;;13.37;10.37;;;12.00;99.90;;;10.59;100.00;100477.41;10379172;28;97105;-92
2023/05/12 17:53:24;;;;;;;11.37;9.43;;;12.00;99.90;;;10.55;100.00;100478.72;10380454;27;96521;-91
2023/05/12 17:58:27;;;;;;;11.57;7.77;;;12.00;99.90;;;10.50;100.00;100484.53;10391479;28;98000;-92
2023/05/12 18:03:30;;;;;;;10.40;7.20;;;11.90;99.90;;;10.48;100.00;100491.00;10424065;27;97227;-91
2023/05/12 18:08:33;;;;;;;9.43;6.90;;;11.90;99.90;;;10.42;100.00;100481.84;10398334;28;98379;-92
2023/05/12 18:13:36;;;;;;;11.70;7.10;;;11.90;99.90;;;10.42;100.00;100485.31;10396542;28;96439;-92
2023/05/12 18:18:39;;;;;;;10.67;8.07;;;11.90;99.90;;;10.39;100.00;100492.78;10426743;28;96522;-92
2023/05/12 18:23:43;;;;;;;14.70;10.60;;;11.80;99.90;;;10.37;100.00;100490.28;10388137;28;96692;-92
2023/05/12 18:28:46;;;;;;;16.27;9.93;;;11.80;99.90;;;10.34;100.00;100490.59;10393020;28;96789;-92
2023/05/12 18:33:49;;;;;;;11.37;8.03;;;11.80;99.90;;;10.38;100.00;100497.28;10423476;27;96522;-92
2023/05/12 18:38:52;;;;;;;8.43;6.43;;;11.80;99.90;;;10.31;100.00;100488.25;10391457;28;98187;-93
2023/05/12 18:43:55;;;;;;;7.87;6.50;;;11.70;99.90;;;10.39;100.00;100500.75;10398269;28;98097;-92
2023/05/12 18:48:58;;;;;;;14.70;9.67;;;11.80;99.90;;;10.35;100.00;100497.59;10389062;28;96715;-92
2023/05/12 18:54:03;;;;;;;12.63;8.70;;;11.80;99.90;;;10.35;100.00;100496.75;10439032;27;96744;-92
2023/05/12 18:59:06;;;;;;;10.13;7.43;;;11.70;99.90;;;10.35;100.00;100494.09;10388939;28;97745;-92
2023/05/12 19:04:09;;;;;;;12.47;8.50;;;11.80;99.90;;;10.33;100.00;100499.56;10392042;28;98206;-92
2023/05/12 19:09:12;;;;;;;13.60;9.17;;;11.80;99.90;;;10.32;100.00;100511.19;10411113;27;96829;-93
2023/05/12 19:14:16;;;;;;;10.27;7.77;;;11.80;99.90;;;10.33;100.00;100504.88;10393010;28;97199;-91
2023/05/12 19:19:19;;;;;;;13.33;9.63;;;11.80;99.90;;;10.29;100.00;100510.66;10387578;28;98249;-93
2023/05/12 19:24:25;;;;;;;11.10;7.90;;;11.80;99.90;;;10.32;100.00;100515.69;10435434;27;96616;-92
2023/05/12 19:29:28;;;;;;;14.47;9.33;;;11.70;99.90;;;10.32;100.00;100521.81;10401463;27;98530;-93
2023/05/12 19:34:31;;;;;;;15.80;10.07;;;11.70;99.90;;;10.27;100.00;100526.78;10388544;28;98582;-93
2023/05/12 19:39:35;;;;;;;13.13;9.20;;;11.80;99.90;;;10.27;100.00;100517.97;10393515;28;97155;-92
2023/05/12 19:44:38;;;;;;;12.87;9.60;;;11.80;99.90;;;10.28;100.00;100524.94;10426011;27;96932;-93
2023/05/12 19:49:41;;;;;;;11.23;8.03;;;11.70;99.90;;;10.26;100.00;100525.13;10407707;28;96705;-93
2023/05/12 19:54:44;;;;;;;9.23;6.73;;;11.80;99.90;;;10.30;100.00;100530.91;10399545;28;98417;-92
2023/05/12 19:59:48;;;;;;;10.17;6.77;;;11.80;99.90;;;10.32;100.00;100534.28;10427322;27;96758;-92
2023/05/12 20:04:51;;;;;;;9.43;7.97;;;11.80;99.90;;;10.30;100.00;100536.22;10387171;28;96869;-93
2023/05/12 20:09:54;;;;;;;13.77;8.67;;;11.80;99.90;;;10.30;100.00;100537.06;10401452;28;96666;-92
2023/05/12 20:14:57;;;;;;;11.40;7.33;;;11.80;99.90;;;10.31;100.00;100538.72;10412863;27;97499;-93
2023/05/12 20:20:02;;;;;;;10.80;7.97;;;11.80;99.90;;;10.31;100.00;100527.28;10428601;28;96629;-92
2023/05/12 20:25:06;;;;;;;10.70;7.37;;;11.80;99.90;;;10.31;100.00;100532.59;10413951;28;96761;-93
2023/05/12 20:30:11;;;;;;;11.93;7.20;;;11.80;99.90;;;10.31;100.00;100536.06;10398840;28;97358;-92
2023/05/12 20:35:15;;;;;;;11.27;8.20;;;11.80;99.90;;;10.30;100.00;100530.91;10394971;28;96757;-93
2023/05/12 20:40:18;;;;;;;8.83;7.03;;;11.80;99.90;;;10.28;100.00;100533.75;10389565;28;97489;-91